sensor_id;sensor_type;location;lat;lon;timestamp;pressure;altitude;pressure_sealevel;temperature;humidity
78206;BME280;67480;48.920;12.880;2023-02-15T00:02:22;98571.41;;;-0.30;67.12
78206;BME280;67480;48.920;12.880;2023-02-15T00:04:49;98570.16;;;-0.27;66.67
78206;BME280;67480;48.920;12.880;2023-02-15T00:07:16;98563.84;;;-0.13;65.95
78206;BME280;67480;48.920;12.880;2023-02-15T00:09:43;98565.25;;;-0.17;66.35
78206;BME280;67480;48.920;12.880;2023-02-15T00:12:09;98565.50;;;-0.12;65.85
78206;BME280;67480;48.920;12.880;2023-02-15T00:14:35;98564.84;;;-0.07;65.31
78206;BME280;67480;48.920;12.880;2023-02-15T00:17:00;98563.84;;;-0.13;64.81
78206;BME280;67480;48.920;12.880;2023-02-15T00:19:26;98561.41;;;-0.21;65.09
78206;BME280;67480;48.920;12.880;2023-02-15T00:21:51;98563.03;;;-0.20;65.23
78206;BME280;67480;48.920;12.880;2023-02-15T00:24:18;98558.16;;;-0.17;65.24
78206;BME280;67480;48.920;12.880;2023-02-15T00:26:44;98555.50;;;-0.03;65.26
78206;BME280;67480;48.920;12.880;2023-02-15T00:29:11;98557.13;;;0.04;64.95
78206;BME280;67480;48.920;12.880;2023-02-15T00:31:37;98555.31;;;-0.15;64.84
78206;BME280;67480;48.920;12.880;2023-02-15T00:34:04;98551.63;;;-0.21;65.48
78206;BME280;67480;48.920;12.880;2023-02-15T00:36:31;98551.22;;;-0.18;65.25
78206;BME280;67480;48.920;12.880;2023-02-15T00:38:56;98552.66;;;-0.22;65.54
78206;BME280;67480;48.920;12.880;2023-02-15T00:41:22;98558.56;;;-0.26;65.53
78206;BME280;67480;48.920;12.880;2023-02-15T00:43:47;98556.34;;;-0.30;65.43
78206;BME280;67480;48.920;12.880;2023-02-15T00:46:12;98556.94;;;-0.27;64.91
78206;BME280;67480;48.920;12.880;2023-02-15T00:48:37;98556.31;;;-0.56;65.77
78206;BME280;67480;48.920;12.880;2023-02-15T00:51:03;98558.13;;;-0.57;66.75
78206;BME280;67480;48.920;12.880;2023-02-15T00:53:29;98550.22;;;-0.50;65.80
78206;BME280;67480;48.920;12.880;2023-02-15T00:55:55;98550.63;;;-0.40;64.60
78206;BME280;67480;48.920;12.880;2023-02-15T00:58:21;98547.75;;;-0.38;64.75
78206;BME280;67480;48.920;12.880;2023-02-15T01:00:46;98546.34;;;-0.27;64.47
78206;BME280;67480;48.920;12.880;2023-02-15T01:03:13;98539.84;;;-0.45;64.25
78206;BME280;67480;48.920;12.880;2023-02-15T01:05:39;98540.88;;;-0.59;65.04
78206;BME280;67480;48.920;12.880;2023-02-15T01:08:05;98541.22;;;-0.76;66.70
78206;BME280;67480;48.920;12.880;2023-02-15T01:10:31;98536.53;;;-0.87;67.06
78206;BME280;67480;48.920;12.880;2023-02-15T01:12:57;98539.22;;;-0.80;67.44
78206;BME280;67480;48.920;12.880;2023-02-15T01:15:23;98541.66;;;-0.65;66.62
78206;BME280;67480;48.920;12.880;2023-02-15T01:17:48;98543.06;;;-0.83;67.52
78206;BME280;67480;48.920;12.880;2023-02-15T01:20:22;98543.47;;;-0.73;66.58
78206;BME280;67480;48.920;12.880;2023-02-15T01:22:48;98535.34;;;-0.71;67.82
78206;BME280;67480;48.920;12.880;2023-02-15T01:25:16;98540.03;;;-0.73;66.80
78206;BME280;67480;48.920;12.880;2023-02-15T01:27:41;98539.00;;;-0.72;67.65
78206;BME280;67480;48.920;12.880;2023-02-15T01:30:06;98529.25;;;-0.65;66.38
78206;BME280;67480;48.920;12.880;2023-02-15T01:32:32;98524.75;;;-0.85;67.88
78206;BME280;67480;48.920;12.880;2023-02-15T01:34:57;98522.13;;;-0.71;66.98
78206;BME280;67480;48.920;12.880;2023-02-15T01:37:22;98518.47;;;-0.63;66.54
78206;BME280;67480;48.920;12.880;2023-02-15T01:39:48;98517.03;;;-0.66;65.83
78206;BME280;67480;48.920;12.880;2023-02-15T01:42:13;98512.59;;;-0.59;65.64
78206;BME280;67480;48.920;12.880;2023-02-15T01:44:53;98510.34;;;-0.62;65.63
78206;BME280;67480;48.920;12.880;2023-02-15T01:47:41;98503.22;;;-0.55;65.18
78206;BME280;67480;48.920;12.880;2023-02-15T01:52:51;98502.19;;;-0.60;65.82
78206;BME280;67480;48.920;12.880;2023-02-15T01:55:18;98497.75;;;-0.40;65.36
78206;BME280;67480;48.920;12.880;2023-02-15T01:57:45;98502.59;;;-0.37;65.25
78206;BME280;67480;48.920;12.880;2023-02-15T02:00:12;98488.16;;;-0.41;65.68
78206;BME280;67480;48.920;12.880;2023-02-15T02:02:39;98495.69;;;-0.38;65.82
78206;BME280;67480;48.920;12.880;2023-02-15T02:05:07;98491.41;;;-0.52;66.19
78206;BME280;67480;48.920;12.880;2023-02-15T02:07:35;98486.13;;;-0.39;66.37
78206;BME280;67480;48.920;12.880;2023-02-15T02:10:06;98487.34;;;-0.61;66.75
78206;BME280;67480;48.920;12.880;2023-02-15T02:12:32;98482.88;;;-0.47;66.40
78206;BME280;67480;48.920;12.880;2023-02-15T02:14:57;98477.78;;;-0.42;65.99
78206;BME280;67480;48.920;12.880;2023-02-15T02:20:51;98474.75;;;-0.39;65.68
78206;BME280;67480;48.920;12.880;2023-02-15T02:23:27;98472.28;;;-0.41;65.63
78206;BME280;67480;48.920;12.880;2023-02-15T02:34:15;98469.25;;;-0.58;65.50
78206;BME280;67480;48.920;12.880;2023-02-15T02:36:52;98468.03;;;-0.49;65.56
78206;BME280;67480;48.920;12.880;2023-02-15T02:44:44;98453.78;;;-0.68;65.24
78206;BME280;67480;48.920;12.880;2023-02-15T02:47:23;98460.09;;;-0.69;65.34
78206;BME280;67480;48.920;12.880;2023-02-15T02:49:57;98450.75;;;-0.91;66.12
78206;BME280;67480;48.920;12.880;2023-02-15T02:52:39;98450.28;;;-1.15;67.66
78206;BME280;67480;48.920;12.880;2023-02-15T03:00:26;98450.28;;;-1.15;67.66
78206;BME280;67480;48.920;12.880;2023-02-15T03:03:00;98451.34;;;-0.96;66.57
78206;BME280;67480;48.920;12.880;2023-02-15T03:05:30;98453.78;;;-0.88;66.07
78206;BME280;67480;48.920;12.880;2023-02-15T03:07:58;98449.09;;;-0.86;65.52
78206;BME280;67480;48.920;12.880;2023-02-15T03:10:26;98454.59;;;-0.87;65.63
78206;BME280;67480;48.920;12.880;2023-02-15T03:12:53;98452.31;;;-1.17;65.61
78206;BME280;67480;48.920;12.880;2023-02-15T03:15:24;98454.78;;;-1.15;66.34
78206;BME280;67480;48.920;12.880;2023-02-15T03:17:58;98444.22;;;-1.02;65.48
78206;BME280;67480;48.920;12.880;2023-02-15T03:20:30;98451.34;;;-0.96;65.52
78206;BME280;67480;48.920;12.880;2023-02-15T03:23:12;98447.50;;;-0.93;65.24
78206;BME280;67480;48.920;12.880;2023-02-15T03:25:39;98451.16;;;-0.88;65.39
78206;BME280;67480;48.920;12.880;2023-02-15T03:28:09;98454.78;;;-0.95;65.38
78206;BME280;67480;48.920;12.880;2023-02-15T03:30:38;98447.69;;;-0.88;65.59
78206;BME280;67480;48.920;12.880;2023-02-15T03:33:05;98449.09;;;-0.92;64.96
78206;BME280;67480;48.920;12.880;2023-02-15T03:35:38;98447.28;;;-0.92;64.96
78206;BME280;67480;48.920;12.880;2023-02-15T03:38:06;98443.41;;;-1.02;64.69
78206;BME280;67480;48.920;12.880;2023-02-15T03:40:44;98444.84;;;-1.07;64.86
78206;BME280;67480;48.920;12.880;2023-02-15T03:46:12;98438.53;;;-1.06;64.60
78206;BME280;67480;48.920;12.880;2023-02-15T03:48:43;98428.16;;;-1.00;64.59
78206;BME280;67480;48.920;12.880;2023-02-15T03:51:15;98432.22;;;-1.11;64.87
78206;BME280;67480;48.920;12.880;2023-02-15T03:54:20;98434.44;;;-1.15;64.12
78206;BME280;67480;48.920;12.880;2023-02-15T03:57:09;98436.06;;;-1.20;64.22
78206;BME280;67480;48.920;12.880;2023-02-15T03:59:53;98434.06;;;-0.98;64.33
78206;BME280;67480;48.920;12.880;2023-02-15T04:02:59;98440.56;;;-1.08;64.20
78206;BME280;67480;48.920;12.880;2023-02-15T04:05:30;98439.75;;;-1.08;64.09
78206;BME280;67480;48.920;12.880;2023-02-15T04:07:55;98434.69;;;-1.10;65.12
78206;BME280;67480;48.920;12.880;2023-02-15T04:10:20;98429.34;;;-1.36;65.84
78206;BME280;67480;48.920;12.880;2023-02-15T04:13:04;98438.91;;;-1.29;65.48
78206;BME280;67480;48.920;12.880;2023-02-15T04:15:29;98430.09;;;-1.49;66.12
78206;BME280;67480;48.920;12.880;2023-02-15T04:18:13;98434.34;;;-1.68;66.41
78206;BME280;67480;48.920;12.880;2023-02-15T04:20:43;98436.84;;;-1.40;65.86
78206;BME280;67480;48.920;12.880;2023-02-15T04:23:27;98436.84;;;-1.40;66.02
78206;BME280;67480;48.920;12.880;2023-02-15T04:26:12;98435.66;;;-1.31;65.52
78206;BME280;67480;48.920;12.880;2023-02-15T04:28:37;98437.09;;;-1.15;64.89
78206;BME280;67480;48.920;12.880;2023-02-15T04:31:02;98440.56;;;-1.14;65.25
78206;BME280;67480;48.920;12.880;2023-02-15T04:33:28;98433.44;;;-1.20;64.83
78206;BME280;67480;48.920;12.880;2023-02-15T04:35:53;98429.38;;;-1.16;64.75
78206;BME280;67480;48.920;12.880;2023-02-15T04:38:18;98423.28;;;-1.17;64.55
78206;BME280;67480;48.920;12.880;2023-02-15T04:40:44;98430.41;;;-1.17;64.41
78206;BME280;67480;48.920;12.880;2023-02-15T04:43:09;98443.81;;;-1.12;63.84
78206;BME280;67480;48.920;12.880;2023-02-15T04:45:34;98431.00;;;-1.15;63.98
78206;BME280;67480;48.920;12.880;2023-02-15T04:48:00;98437.31;;;-1.16;63.79
78206;BME280;67480;48.920;12.880;2023-02-15T04:50:25;98435.47;;;-1.16;63.92
78206;BME280;67480;48.920;12.880;2023-02-15T04:52:50;98431.97;;;-1.36;64.26
78206;BME280;67480;48.920;12.880;2023-02-15T04:55:16;98427.66;;;-1.51;65.05
78206;BME280;67480;48.920;12.880;2023-02-15T04:57:41;98426.91;;;-1.31;64.28
78206;BME280;67480;48.920;12.880;2023-02-15T05:00:07;98429.75;;;-1.33;64.34
78206;BME280;67480;48.920;12.880;2023-02-15T05:02:33;98425.72;;;-1.22;63.71
78206;BME280;67480;48.920;12.880;2023-02-15T05:04:59;98430.19;;;-1.16;63.41
78206;BME280;67480;48.920;12.880;2023-02-15T05:07:24;98430.41;;;-1.17;62.96
78206;BME280;67480;48.920;12.880;2023-02-15T05:09:49;98427.75;;;-1.24;63.40
78206;BME280;67480;48.920;12.880;2023-02-15T05:12:14;98435.06;;;-1.26;63.37
78206;BME280;67480;48.920;12.880;2023-02-15T05:14:40;98434.03;;;-1.32;63.78
78206;BME280;67480;48.920;12.880;2023-02-15T05:17:05;98437.25;;;-1.36;64.51
78206;BME280;67480;48.920;12.880;2023-02-15T05:19:30;98434.59;;;-1.50;64.63
78206;BME280;67480;48.920;12.880;2023-02-15T05:21:56;98431.91;;;-1.70;64.54
78206;BME280;67480;48.920;12.880;2023-02-15T05:24:21;98438.19;;;-1.71;64.93
78206;BME280;67480;48.920;12.880;2023-02-15T05:27:05;98429.09;;;-1.55;64.99
78206;BME280;67480;48.920;12.880;2023-02-15T05:29:48;98437.59;;;-1.66;65.72
78206;BME280;67480;48.920;12.880;2023-02-15T05:32:14;98441.91;;;-1.52;65.21
78206;BME280;67480;48.920;12.880;2023-02-15T05:34:39;98440.06;;;-1.51;64.85
78206;BME280;67480;48.920;12.880;2023-02-15T05:37:05;98434.78;;;-1.51;65.12
78206;BME280;67480;48.920;12.880;2023-02-15T05:39:30;98435.16;;;-1.61;65.39
78206;BME280;67480;48.920;12.880;2023-02-15T05:41:58;98442.09;;;-1.60;66.00
78206;BME280;67480;48.920;12.880;2023-02-15T05:44:24;98438.00;;;-1.56;65.38
78206;BME280;67480;48.920;12.880;2023-02-15T05:46:50;98436.22;;;-1.55;65.84
78206;BME280;67480;48.920;12.880;2023-02-15T05:49:15;98444.56;;;-1.38;65.90
78206;BME280;67480;48.920;12.880;2023-02-15T05:51:40;98443.31;;;-1.43;65.68
78206;BME280;67480;48.920;12.880;2023-02-15T05:54:06;98447.09;;;-1.72;65.99
78206;BME280;67480;48.920;12.880;2023-02-15T05:56:31;98453.22;;;-1.71;66.20
78206;BME280;67480;48.920;12.880;2023-02-15T05:58:56;98454.91;;;-1.50;66.88
78206;BME280;67480;48.920;12.880;2023-02-15T06:01:22;98462.25;;;-1.32;65.96
78206;BME280;67480;48.920;12.880;2023-02-15T06:03:48;98470.16;;;-1.46;66.27
78206;BME280;67480;48.920;12.880;2023-02-15T06:06:14;98467.72;;;-1.41;65.91
78206;BME280;67480;48.920;12.880;2023-02-15T06:08:40;98472.16;;;-1.48;65.51
78206;BME280;67480;48.920;12.880;2023-02-15T06:11:06;98467.09;;;-1.43;65.97
78206;BME280;67480;48.920;12.880;2023-02-15T06:13:32;98476.47;;;-1.40;65.95
78206;BME280;67480;48.920;12.880;2023-02-15T06:15:57;98473.38;;;-1.50;65.77
78206;BME280;67480;48.920;12.880;2023-02-15T06:18:22;98481.34;;;-1.44;66.18
78206;BME280;67480;48.920;12.880;2023-02-15T06:20:48;98480.09;;;-1.41;66.05
78206;BME280;67480;48.920;12.880;2023-02-15T06:23:14;98488.88;;;-1.34;65.41
78206;BME280;67480;48.920;12.880;2023-02-15T06:25:40;98476.84;;;-1.43;65.25
78206;BME280;67480;48.920;12.880;2023-02-15T06:28:05;98486.22;;;-1.41;65.16
78206;BME280;67480;48.920;12.880;2023-02-15T06:30:31;98487.25;;;-1.35;64.50
78206;BME280;67480;48.920;12.880;2023-02-15T06:32:56;98486.66;;;-1.30;65.03
78206;BME280;67480;48.920;12.880;2023-02-15T06:35:22;98493.97;;;-1.32;63.79
78206;BME280;67480;48.920;12.880;2023-02-15T06:37:47;98485.41;;;-1.34;63.64
78206;BME280;67480;48.920;12.880;2023-02-15T06:40:13;98494.16;;;-1.34;63.32
78206;BME280;67480;48.920;12.880;2023-02-15T06:42:38;98494.16;;;-1.34;63.52
78206;BME280;67480;48.920;12.880;2023-02-15T06:45:04;98499.41;;;-1.41;63.52
78206;BME280;67480;48.920;12.880;2023-02-15T06:47:29;98503.09;;;-1.28;63.73
78206;BME280;67480;48.920;12.880;2023-02-15T06:49:55;98502.50;;;-1.24;63.53
78206;BME280;67480;48.920;12.880;2023-02-15T06:52:20;98502.94;;;-1.13;63.56
78206;BME280;67480;48.920;12.880;2023-02-15T06:54:45;98496.25;;;-1.16;63.13
78206;BME280;67480;48.920;12.880;2023-02-15T06:57:11;98491.53;;;-1.20;63.73
78206;BME280;67480;48.920;12.880;2023-02-15T06:59:36;98494.00;;;-1.19;63.93
78206;BME280;67480;48.920;12.880;2023-02-15T07:02:01;98495.44;;;-1.16;64.12
78206;BME280;67480;48.920;12.880;2023-02-15T07:04:26;98497.25;;;-1.10;63.61
78206;BME280;67480;48.920;12.880;2023-02-15T07:06:54;98501.94;;;-1.12;63.20
78206;BME280;67480;48.920;12.880;2023-02-15T07:09:20;98493.00;;;-1.18;62.69
78206;BME280;67480;48.920;12.880;2023-02-15T07:11:45;98487.72;;;-1.18;63.20
78206;BME280;67480;48.920;12.880;2023-02-15T07:14:29;98495.66;;;-1.11;62.98
78206;BME280;67480;48.920;12.880;2023-02-15T07:16:55;98492.19;;;-1.05;63.44
78206;BME280;67480;48.920;12.880;2023-02-15T07:19:20;98496.44;;;-1.17;64.92
78206;BME280;67480;48.920;12.880;2023-02-15T07:21:45;98495.44;;;-1.10;65.25
78206;BME280;67480;48.920;12.880;2023-02-15T07:24:11;98490.38;;;-0.98;64.27
78206;BME280;67480;48.920;12.880;2023-02-15T07:26:36;98489.34;;;-0.97;64.10
78206;BME280;67480;48.920;12.880;2023-02-15T07:29:02;98498.09;;;-0.96;64.06
78206;BME280;67480;48.920;12.880;2023-02-15T07:31:27;98489.19;;;-0.89;63.95
78206;BME280;67480;48.920;12.880;2023-02-15T07:33:53;98484.09;;;-0.90;63.41
78206;BME280;67480;48.920;12.880;2023-02-15T07:36:18;98485.69;;;-1.02;64.57
78206;BME280;67480;48.920;12.880;2023-02-15T07:38:43;98484.69;;;-0.95;64.22
78206;BME280;67480;48.920;12.880;2023-02-15T07:41:11;98485.50;;;-0.81;63.96
78206;BME280;67480;48.920;12.880;2023-02-15T07:43:40;98486.75;;;-0.70;63.33
78206;BME280;67480;48.920;12.880;2023-02-15T07:46:09;98487.34;;;-0.88;63.34
78206;BME280;67480;48.920;12.880;2023-02-15T07:48:37;98483.47;;;-0.86;63.70
78206;BME280;67480;48.920;12.880;2023-02-15T07:51:05;98485.50;;;-0.68;62.82
78206;BME280;67480;48.920;12.880;2023-02-15T07:53:31;98493.66;;;-0.62;63.34
78206;BME280;67480;48.920;12.880;2023-02-15T07:56:09;98492.44;;;-0.67;61.98
78206;BME280;67480;48.920;12.880;2023-02-15T07:58:35;98497.53;;;-0.58;62.08
78206;BME280;67480;48.920;12.880;2023-02-15T08:01:19;98489.78;;;-0.67;62.35
78206;BME280;67480;48.920;12.880;2023-02-15T08:03:45;98492.63;;;-0.61;62.16
78206;BME280;67480;48.920;12.880;2023-02-15T08:06:11;98496.31;;;-0.42;61.95
78206;BME280;67480;48.920;12.880;2023-02-15T08:08:38;98493.84;;;-0.44;62.31
78206;BME280;67480;48.920;12.880;2023-02-15T08:11:14;98495.28;;;-0.35;61.67
78206;BME280;67480;48.920;12.880;2023-02-15T08:14:04;98491.41;;;-0.52;61.97
78206;BME280;67480;48.920;12.880;2023-02-15T08:21:51;98491.84;;;-0.75;62.56
78206;BME280;67480;48.920;12.880;2023-02-15T08:24:20;98488.78;;;-0.45;62.03
78206;BME280;67480;48.920;12.880;2023-02-15T08:26:46;98484.72;;;-0.35;61.75
78206;BME280;67480;48.920;12.880;2023-02-15T08:29:17;98495.69;;;-0.38;62.23
78206;BME280;67480;48.920;12.880;2023-02-15T08:31:43;98493.84;;;-0.31;61.31
78206;BME280;67480;48.920;12.880;2023-02-15T08:34:10;98498.16;;;-0.43;61.81
78206;BME280;67480;48.920;12.880;2023-02-15T08:36:36;98492.66;;;-0.35;61.06
78206;BME280;67480;48.920;12.880;2023-02-15T08:39:04;98495.88;;;-0.19;61.32
78206;BME280;67480;48.920;12.880;2023-02-15T08:41:32;98496.50;;;-0.64;62.31
78206;BME280;67480;48.920;12.880;2023-02-15T08:43:59;98499.56;;;-0.40;62.20
78206;BME280;67480;48.920;12.880;2023-02-15T08:46:27;98489.78;;;-0.26;61.82
78206;BME280;67480;48.920;12.880;2023-02-15T08:48:53;98491.81;;;-0.42;62.63
78206;BME280;67480;48.920;12.880;2023-02-15T08:51:29;98487.53;;;-0.30;61.51
78206;BME280;67480;48.920;12.880;2023-02-15T08:53:58;98494.03;;;-0.32;61.71
78206;BME280;67480;48.920;12.880;2023-02-15T08:56:26;98488.34;;;-0.29;61.74
78206;BME280;67480;48.920;12.880;2023-02-15T08:58:53;98484.81;;;0.11;60.45
78206;BME280;67480;48.920;12.880;2023-02-15T09:01:20;98486.19;;;0.27;59.88
78206;BME280;67480;48.920;12.880;2023-02-15T09:03:48;98488.69;;;0.08;59.64
78206;BME280;67480;48.920;12.880;2023-02-15T09:06:16;98482.81;;;0.51;60.14
78206;BME280;67480;48.920;12.880;2023-02-15T09:08:42;98481.03;;;0.45;60.40
78206;BME280;67480;48.920;12.880;2023-02-15T09:11:34;98474.50;;;0.48;59.16
78206;BME280;67480;48.920;12.880;2023-02-15T09:14:06;98475.56;;;0.33;59.61
78206;BME280;67480;48.920;12.880;2023-02-15T09:16:34;98470.31;;;0.20;60.02
78206;BME280;67480;48.920;12.880;2023-02-15T09:19:00;98469.53;;;0.58;59.58
78206;BME280;67480;48.920;12.880;2023-02-15T09:21:33;98468.06;;;0.69;59.06
78206;BME280;67480;48.920;12.880;2023-02-15T09:24:02;98469.00;;;0.88;58.03
78206;BME280;67480;48.920;12.880;2023-02-15T09:26:29;98470.06;;;0.80;58.64
78206;BME280;67480;48.920;12.880;2023-02-15T09:28:57;98469.13;;;0.61;59.86
78206;BME280;67480;48.920;12.880;2023-02-15T09:31:28;98461.66;;;0.44;59.63
78206;BME280;67480;48.920;12.880;2023-02-15T09:33:54;98466.09;;;0.57;59.46
78206;BME280;67480;48.920;12.880;2023-02-15T09:36:23;98462.56;;;0.70;58.64
78206;BME280;67480;48.920;12.880;2023-02-15T09:41:41;98451.69;;;0.40;59.28
78206;BME280;67480;48.920;12.880;2023-02-15T09:47:20;98448.13;;;0.21;60.35
78206;BME280;67480;48.920;12.880;2023-02-15T09:50:12;98439.56;;;0.25;60.70
78206;BME280;67480;48.920;12.880;2023-02-15T09:53:07;98448.28;;;0.33;60.38
78206;BME280;67480;48.920;12.880;2023-02-15T10:28:50;98443.94;;;0.84;60.12
78206;BME280;67480;48.920;12.880;2023-02-15T10:31:24;98449.44;;;0.82;59.70
78206;BME280;67480;48.920;12.880;2023-02-15T10:36:44;98452.59;;;0.20;61.29
78206;BME280;67480;48.920;12.880;2023-02-15T10:47:37;98447.72;;;0.24;61.57
78206;BME280;67480;48.920;12.880;2023-02-15T11:01:24;98433.25;;;0.20;61.96
78206;BME280;67480;48.920;12.880;2023-02-15T11:06:53;98441.16;;;0.27;61.78
78206;BME280;67480;48.920;12.880;2023-02-15T11:09:22;98434.75;;;0.48;61.56
78206;BME280;67480;48.920;12.880;2023-02-15T11:11:53;98434.13;;;0.07;62.15
78206;BME280;67480;48.920;12.880;2023-02-15T11:14:49;98430.09;;;0.43;62.06
78206;BME280;67480;48.920;12.880;2023-02-15T11:17:21;98427.88;;;0.78;60.88
78206;BME280;67480;48.920;12.880;2023-02-15T11:20:45;98426.75;;;0.61;61.46
78206;BME280;67480;48.920;12.880;2023-02-15T11:22:48;98423.56;;;0.84;60.73
78206;BME280;67480;48.920;12.880;2023-02-15T11:25:18;98421.56;;;0.41;62.00
78206;BME280;67480;48.920;12.880;2023-02-15T11:27:45;98420.53;;;0.42;62.96
78206;BME280;67480;48.920;12.880;2023-02-15T11:30:19;98414.91;;;0.25;62.18
78206;BME280;67480;48.920;12.880;2023-02-15T11:32:47;98409.41;;;0.27;62.99
78206;BME280;67480;48.920;12.880;2023-02-15T11:40:47;98402.19;;;-0.05;63.79
78206;BME280;67480;48.920;12.880;2023-02-15T11:43:17;98405.38;;;0.11;62.96
78206;BME280;67480;48.920;12.880;2023-02-15T11:45:45;98398.25;;;0.18;62.35
78206;BME280;67480;48.920;12.880;2023-02-15T11:48:13;98394.00;;;0.10;63.68
78206;BME280;67480;48.920;12.880;2023-02-15T11:50:39;98403.19;;;0.08;63.66
78206;BME280;67480;48.920;12.880;2023-02-15T11:53:17;98395.22;;;0.14;62.92
78206;BME280;67480;48.920;12.880;2023-02-15T11:55:45;98400.75;;;-0.01;63.55
78206;BME280;67480;48.920;12.880;2023-02-15T12:00:46;98389.78;;;-0.04;63.48
78206;BME280;67480;48.920;12.880;2023-02-15T12:03:16;98397.00;;;0.20;62.96
78206;BME280;67480;48.920;12.880;2023-02-15T12:05:45;98391.72;;;0.14;63.46
78206;BME280;67480;48.920;12.880;2023-02-15T12:08:15;98383.88;;;0.39;62.45
78206;BME280;67480;48.920;12.880;2023-02-15T12:10:57;98379.28;;;0.21;62.57
78206;BME280;67480;48.920;12.880;2023-02-15T12:13:23;98370.97;;;0.11;63.20
78206;BME280;67480;48.920;12.880;2023-02-15T12:15:54;98369.53;;;0.15;63.25
78206;BME280;67480;48.920;12.880;2023-02-15T12:18:35;98365.59;;;0.31;62.54
78206;BME280;67480;48.920;12.880;2023-02-15T12:21:09;98366.72;;;0.10;62.82
78206;BME280;67480;48.920;12.880;2023-02-15T12:23:42;98366.09;;;0.46;62.54
78206;BME280;67480;48.920;12.880;2023-02-15T12:26:12;98361.28;;;0.68;60.99
78206;BME280;67480;48.920;12.880;2023-02-15T12:28:40;98355.44;;;0.85;61.40
78206;BME280;67480;48.920;12.880;2023-02-15T12:33:44;98349.63;;;1.20;60.29
78206;BME280;67480;48.920;12.880;2023-02-15T12:36:18;98352.91;;;1.59;58.88
78206;BME280;67480;48.920;12.880;2023-02-15T12:39:02;98342.97;;;1.72;59.34
78206;BME280;67480;48.920;12.880;2023-02-15T12:41:28;98342.81;;;1.86;58.44
78206;BME280;67480;48.920;12.880;2023-02-15T12:44:15;98337.59;;;2.09;58.10
78206;BME280;67480;48.920;12.880;2023-02-15T12:46:41;98333.47;;;1.65;58.69
78206;BME280;67480;48.920;12.880;2023-02-15T12:49:10;98328.69;;;1.37;59.50
78206;BME280;67480;48.920;12.880;2023-02-15T12:51:50;98318.34;;;0.85;60.74
78206;BME280;67480;48.920;12.880;2023-02-15T12:56:46;98313.34;;;1.76;58.77
78206;BME280;67480;48.920;12.880;2023-02-15T12:59:13;98318.78;;;2.11;57.73
78206;BME280;67480;48.920;12.880;2023-02-15T13:01:45;98316.13;;;2.11;57.78
78206;BME280;67480;48.920;12.880;2023-02-15T13:04:28;98311.28;;;1.78;57.57
78206;BME280;67480;48.920;12.880;2023-02-15T13:07:01;98303.09;;;1.79;57.91
78206;BME280;67480;48.920;12.880;2023-02-15T13:12:11;98298.09;;;2.01;57.87
78206;BME280;67480;48.920;12.880;2023-02-15T13:14:44;98285.91;;;2.12;57.28
78206;BME280;67480;48.920;12.880;2023-02-15T13:17:11;98277.41;;;2.34;57.47
78206;BME280;67480;48.920;12.880;2023-02-15T13:19:50;98279.38;;;1.96;57.26
78206;BME280;67480;48.920;12.880;2023-02-15T13:22:22;98278.19;;;1.25;59.72
78206;BME280;67480;48.920;12.880;2023-02-15T13:24:56;98269.94;;;0.96;60.42
78206;BME280;67480;48.920;12.880;2023-02-15T13:27:26;98266.94;;;0.86;61.21
78206;BME280;67480;48.920;12.880;2023-02-15T13:29:56;98268.63;;;0.80;61.80
78206;BME280;67480;48.920;12.880;2023-02-15T13:32:32;98262.50;;;1.05;61.70
78206;BME280;67480;48.920;12.880;2023-02-15T13:35:00;98268.78;;;1.10;61.09
78206;BME280;67480;48.920;12.880;2023-02-15T13:37:47;98262.97;;;0.51;62.01
78206;BME280;67480;48.920;12.880;2023-02-15T13:40:33;98261.31;;;1.19;61.00
78206;BME280;67480;48.920;12.880;2023-02-15T13:46:04;98267.53;;;1.31;60.59
78206;BME280;67480;48.920;12.880;2023-02-15T13:51:16;98269.50;;;1.54;60.00
78206;BME280;67480;48.920;12.880;2023-02-15T14:01:56;98260.44;;;1.25;60.90
78206;BME280;67480;48.920;12.880;2023-02-15T14:10:05;98269.66;;;1.04;61.96
78206;BME280;67480;48.920;12.880;2023-02-15T14:20:21;98257.13;;;1.11;60.90
78206;BME280;67480;48.920;12.880;2023-02-15T14:23:08;98258.38;;;1.09;61.05
78206;BME280;67480;48.920;12.880;2023-02-15T14:25:48;98268.16;;;1.08;61.47
78206;BME280;67480;48.920;12.880;2023-02-15T14:28:43;98263.13;;;0.82;61.63
78206;BME280;67480;48.920;12.880;2023-02-15T14:31:12;98259.47;;;0.57;62.90
78206;BME280;67480;48.920;12.880;2023-02-15T14:33:55;98255.41;;;0.55;62.88
78206;BME280;67480;48.920;12.880;2023-02-15T14:36:35;98268.41;;;0.63;62.55
78206;BME280;67480;48.920;12.880;2023-02-15T14:39:42;98259.75;;;0.74;63.19
78206;BME280;67480;48.920;12.880;2023-02-15T14:42:42;98267.66;;;0.99;62.25
78206;BME280;67480;48.920;12.880;2023-02-15T14:45:33;98249.66;;;0.83;62.58
78206;BME280;67480;48.920;12.880;2023-02-15T14:48:11;98257.44;;;0.53;63.82
78206;BME280;67480;48.920;12.880;2023-02-15T14:50:43;98248.50;;;0.54;62.96
78206;BME280;67480;48.920;12.880;2023-02-15T14:53:37;98245.53;;;0.87;62.87
78206;BME280;67480;48.920;12.880;2023-02-15T14:58:37;98244.81;;;0.55;63.75
78206;BME280;67480;48.920;12.880;2023-02-15T15:01:07;98241.63;;;0.71;63.06
78206;BME280;67480;48.920;12.880;2023-02-15T15:03:35;98234.25;;;0.73;63.33
78206;BME280;67480;48.920;12.880;2023-02-15T15:06:03;98234.88;;;0.94;62.60
78206;BME280;67480;48.920;12.880;2023-02-15T15:08:39;98246.22;;;0.83;62.47
78206;BME280;67480;48.920;12.880;2023-02-15T15:13:57;98246.09;;;0.71;63.01
78206;BME280;67480;48.920;12.880;2023-02-15T15:19:12;98246.97;;;0.39;63.40
78206;BME280;67480;48.920;12.880;2023-02-15T15:29:58;98239.84;;;0.65;62.72
78206;BME280;67480;48.920;12.880;2023-02-15T15:32:27;98245.13;;;0.65;63.21
78206;BME280;67480;48.920;12.880;2023-02-15T15:35:13;98240.75;;;0.52;63.31
78206;BME280;67480;48.920;12.880;2023-02-15T15:49:01;98232.16;;;0.06;64.79
78206;BME280;67480;48.920;12.880;2023-02-15T15:51:30;98236.66;;;-0.01;65.17
78206;BME280;67480;48.920;12.880;2023-02-15T15:53:56;98233.50;;;0.16;64.47
78206;BME280;67480;48.920;12.880;2023-02-15T15:57:34;98223.72;;;-0.16;65.67
78206;BME280;67480;48.920;12.880;2023-02-15T15:59:34;98227.00;;;0.12;64.81